createdAt,value
2019-01-24T00:01:45.911Z,97521.03
2019-01-24T00:04:16.743Z,97523.58
2019-01-24T00:06:41.076Z,97517.39
2019-01-24T00:09:07.914Z,97520.36
2019-01-24T00:11:34.790Z,97523.77
2019-01-24T00:14:01.864Z,97531.39
2019-01-24T00:16:28.507Z,97528.88
2019-01-24T00:18:55.268Z,97531.52
2019-01-24T00:21:21.902Z,97530.34
2019-01-24T00:23:48.490Z,97540.11
2019-01-24T00:26:15.096Z,97528.05
2019-01-24T00:28:42.287Z,97527.23
2019-01-24T00:31:09.491Z,97529.74
2019-01-24T00:33:36.132Z,97535.30
2019-01-24T00:36:02.953Z,97535.71
2019-01-24T00:38:29.570Z,97529.70
2019-01-24T00:40:56.246Z,97538.72
2019-01-24T00:43:22.983Z,97540.56
2019-01-24T00:45:49.742Z,97543.11
2019-01-24T00:48:16.272Z,97537.55
2019-01-24T00:50:43.592Z,97546.20
2019-01-24T00:53:10.352Z,97551.83
2019-01-24T00:55:37.205Z,97552.69
2019-01-24T00:58:04.224Z,97552.36
2019-01-24T01:00:30.872Z,97550.67
2019-01-24T01:02:57.411Z,97551.41
2019-01-24T01:05:24.059Z,97560.42
2019-01-24T01:07:51.076Z,97563.47
2019-01-24T01:10:17.789Z,97563.06
2019-01-24T01:12:44.457Z,97569.10
2019-01-24T01:15:16.165Z,97564.82
2019-01-24T01:17:43.359Z,97571.41
2019-01-24T01:20:15.318Z,97562.42
2019-01-24T01:22:42.121Z,97562.80
2019-01-24T01:25:10.019Z,97565.92
2019-01-24T01:27:36.704Z,97570.20
2019-01-24T01:30:06.006Z,97569.83
2019-01-24T01:32:32.631Z,97570.36
2019-01-24T01:34:59.160Z,97577.67
2019-01-24T01:37:25.833Z,97581.39
2019-01-24T01:39:52.379Z,97575.05
2019-01-24T01:42:18.924Z,97575.95
2019-01-24T01:44:46.120Z,97570.92
2019-01-24T01:47:12.648Z,97567.20
2019-01-24T01:49:40.092Z,97568.44
2019-01-24T01:52:06.995Z,97577.83
2019-01-24T01:54:33.569Z,97577.04
2019-01-24T01:57:00.315Z,97576.38
2019-01-24T01:59:26.923Z,97574.67
2019-01-24T02:01:53.502Z,97581.17
2019-01-24T02:04:20.072Z,97580.77
2019-01-24T02:06:46.981Z,97588.88
2019-01-24T02:09:13.570Z,97587.33
2019-01-24T02:11:40.196Z,97585.61
2019-01-24T02:14:06.837Z,97584.14
2019-01-24T02:16:33.845Z,97582.91
2019-01-24T02:19:00.574Z,97590.23
2019-01-24T02:21:28.483Z,97585.08
2019-01-24T02:23:54.997Z,97589.47
2019-01-24T02:26:21.499Z,97582.67
2019-01-24T02:28:48.017Z,97581.02
2019-01-24T02:31:14.615Z,97587.00
2019-01-24T02:33:41.144Z,97588.77
2019-01-24T02:36:07.862Z,97586.20
2019-01-24T02:38:34.678Z,97591.42
2019-01-24T02:41:01.330Z,97593.19
2019-01-24T02:43:27.856Z,97591.13
2019-01-24T02:45:54.448Z,97591.05
2019-01-24T02:48:20.987Z,97601.34
2019-01-24T02:50:47.919Z,97604.73
2019-01-24T02:53:14.448Z,97610.70
2019-01-24T02:55:41.056Z,97609.50
2019-01-24T02:58:07.625Z,97609.84
2019-01-24T03:00:34.175Z,97607.05
2019-01-24T03:03:00.836Z,97607.84
2019-01-24T03:05:27.420Z,97609.34
2019-01-24T03:07:53.947Z,97611.89
2019-01-24T03:10:20.639Z,97618.77
2019-01-24T03:12:47.807Z,97613.25
2019-01-24T03:15:19.282Z,97613.39
2019-01-24T03:17:46.184Z,97614.25
2019-01-24T03:20:13.123Z,97610.84
2019-01-24T03:22:39.707Z,97619.78
2019-01-24T03:25:06.824Z,97613.02
2019-01-24T03:27:33.597Z,97612.64
2019-01-24T03:30:00.445Z,97613.47
2019-01-24T03:32:27.288Z,97609.97
2019-01-24T03:34:53.931Z,97613.02
2019-01-24T03:37:20.538Z,97611.66
2019-01-24T03:39:47.118Z,97621.09
2019-01-24T03:42:13.629Z,97626.25
2019-01-24T03:44:40.350Z,97628.73
2019-01-24T03:47:06.937Z,97627.48
2019-01-24T03:49:33.469Z,97629.45
2019-01-24T03:51:59.965Z,97627.27
2019-01-24T03:54:26.475Z,97626.89
2019-01-24T03:56:53.552Z,97626.89
2019-01-24T03:59:20.268Z,97628.62
2019-01-24T04:01:47.058Z,97633.88
2019-01-24T04:04:14.075Z,97625.31
2019-01-24T04:06:41.015Z,97623.16
2019-01-24T04:09:07.727Z,97627.76
2019-01-24T04:11:34.213Z,97624.34
2019-01-24T04:14:00.745Z,97622.68
2019-01-24T04:16:27.660Z,97628.55
2019-01-24T04:18:54.773Z,97631.03
2019-01-24T04:21:21.246Z,97634.11
2019-01-24T04:23:47.849Z,97634.97
2019-01-24T04:26:14.982Z,97635.84
2019-01-24T04:28:41.469Z,97632.45
2019-01-24T04:31:07.972Z,97635.01
2019-01-24T04:33:34.509Z,97633.39
2019-01-24T04:36:01.064Z,97639.41
2019-01-24T04:38:27.822Z,97646.73
2019-01-24T04:40:54.497Z,97639.03
2019-01-24T04:43:21.592Z,97646.32
2019-01-24T04:45:48.273Z,97646.77
2019-01-24T04:48:16.062Z,97652.63
2019-01-24T04:50:42.589Z,97656.09
2019-01-24T04:53:09.630Z,97653.13
2019-01-24T04:55:37.453Z,97654.81
2019-01-24T04:58:04.012Z,97653.54
2019-01-24T05:00:30.800Z,97652.37
2019-01-24T05:02:57.736Z,97656.66
2019-01-24T05:05:28.039Z,97658.76
2019-01-24T05:07:52.713Z,97657.86
2019-01-24T05:10:19.810Z,97657.38
2019-01-24T05:12:46.308Z,97662.48
2019-01-24T05:15:14.023Z,97652.75
2019-01-24T05:17:40.551Z,97665.04
2019-01-24T05:20:08.931Z,97659.55
2019-01-24T05:22:35.466Z,97662.97
2019-01-24T05:25:02.263Z,97659.63
2019-01-24T05:27:30.866Z,97657.06
2019-01-24T05:29:57.405Z,97660.91
2019-01-24T05:32:23.929Z,97661.39
2019-01-24T05:34:50.509Z,97667.52
2019-01-24T05:37:19.505Z,97676.58
2019-01-24T05:39:46.172Z,97675.19
2019-01-24T05:42:13.767Z,97683.76
2019-01-24T05:44:40.500Z,97682.03
2019-01-24T05:47:07.038Z,97677.78
2019-01-24T05:49:33.866Z,97682.86
2019-01-24T05:52:00.460Z,97683.30
2019-01-24T05:54:26.962Z,97686.80
2019-01-24T05:56:55.578Z,97685.94
2019-01-24T05:59:22.234Z,97695.75
2019-01-24T06:01:49.653Z,97697.48
2019-01-24T06:04:16.290Z,97698.80
2019-01-24T06:06:45.923Z,97701.02
2019-01-24T06:09:12.421Z,97706.13
2019-01-24T06:11:39.335Z,97715.16
2019-01-24T06:14:06.011Z,97713.34
2019-01-24T06:16:33.142Z,97716.77
2019-01-24T06:18:59.919Z,97718.91
2019-01-24T06:21:26.526Z,97718.98
2019-01-24T06:23:53.058Z,97713.95
2019-01-24T06:26:20.005Z,97713.05
2019-01-24T06:28:46.793Z,97716.51
2019-01-24T06:31:13.342Z,97716.61
2019-01-24T06:33:39.893Z,97714.89
2019-01-24T06:36:06.433Z,97713.61
2019-01-24T06:38:33.292Z,97712.41
2019-01-24T06:40:59.845Z,97720.11
2019-01-24T06:43:26.420Z,97720.53
2019-01-24T06:45:55.058Z,97723.01
2019-01-24T06:48:21.595Z,97724.29
2019-01-24T06:50:54.520Z,97724.66
2019-01-24T06:53:21.286Z,97722.14
2019-01-24T06:55:48.398Z,97729.44
2019-01-24T06:58:14.982Z,97731.13
2019-01-24T07:00:41.506Z,97735.42
2019-01-24T07:03:08.019Z,97734.14
2019-01-24T07:05:35.237Z,97738.05
2019-01-24T07:08:01.812Z,97744.83
2019-01-24T07:10:28.622Z,97739.33
2019-01-24T07:12:55.198Z,97744.03
2019-01-24T07:15:22.460Z,97748.21
2019-01-24T07:17:49.128Z,97749.94
2019-01-24T07:20:16.877Z,97756.75
2019-01-24T07:22:43.526Z,97760.17
2019-01-24T07:25:13.500Z,97760.63
2019-01-24T07:27:40.646Z,97765.33
2019-01-24T07:30:09.602Z,97768.82
2019-01-24T07:32:36.547Z,97770.59
2019-01-24T07:35:04.815Z,97774.02
2019-01-24T07:37:31.555Z,97774.43
2019-01-24T07:39:58.113Z,97783.42
2019-01-24T07:42:29.307Z,97794.22
2019-01-24T07:44:55.937Z,97789.17
2019-01-24T07:47:22.950Z,97790.08
2019-01-24T07:49:49.449Z,97793.13
2019-01-24T07:52:17.457Z,97795.31
2019-01-24T07:54:44.345Z,97796.59
2019-01-24T07:57:10.900Z,97794.52
2019-01-24T07:59:37.957Z,97801.78
2019-01-24T08:02:04.610Z,97810.36
2019-01-24T08:04:31.275Z,97801.89
2019-01-24T08:06:58.151Z,97807.16
2019-01-24T08:09:24.792Z,97803.84
2019-01-24T08:11:51.479Z,97801.84
2019-01-24T08:14:18.379Z,97806.96
2019-01-24T08:16:45.446Z,97812.19
2019-01-24T08:19:12.179Z,97817.84
2019-01-24T08:21:38.803Z,97808.84
2019-01-24T08:24:05.433Z,97810.98
2019-01-24T08:26:32.251Z,97814.45
2019-01-24T08:28:59.043Z,97805.94
2019-01-24T08:31:27.533Z,97809.29
2019-01-24T08:33:54.263Z,97810.33
2019-01-24T08:36:20.982Z,97813.97
2019-01-24T08:38:50.335Z,97815.43
2019-01-24T08:41:17.210Z,97811.17
2019-01-24T08:43:43.893Z,97814.30
2019-01-24T08:46:20.303Z,97805.50
2019-01-24T08:48:47.397Z,97821.66
2019-01-24T08:51:13.935Z,97810.75
2019-01-24T08:53:40.482Z,97810.12
2019-01-24T08:56:07.482Z,97818.08
2019-01-24T08:58:34.268Z,97810.09
2019-01-24T09:01:00.774Z,97814.84
2019-01-24T09:03:27.787Z,97812.44
2019-01-24T09:05:54.401Z,97814.90
2019-01-24T09:08:20.928Z,97814.16
2019-01-24T09:10:47.627Z,97811.30
2019-01-24T09:13:14.161Z,97814.44
2019-01-24T09:15:40.636Z,97816.71
2019-01-24T09:18:07.871Z,97820.11
2019-01-24T09:20:34.841Z,97823.09
2019-01-24T09:23:01.871Z,97829.39
2019-01-24T09:25:28.775Z,97828.19
2019-01-24T09:27:55.459Z,97830.45
2019-01-24T09:30:23.261Z,97833.22
2019-01-24T09:32:49.826Z,97830.63
2019-01-24T09:35:16.502Z,97837.13
2019-01-24T09:37:43.056Z,97833.42
2019-01-24T09:40:10.824Z,97837.91
2019-01-24T09:42:39.448Z,97848.82
2019-01-24T09:45:08.919Z,97852.17
2019-01-24T09:47:35.450Z,97847.14
2019-01-24T09:50:06.305Z,97851.75
2019-01-24T09:52:33.190Z,97855.99
2019-01-24T09:54:59.832Z,97850.97
2019-01-24T09:57:26.777Z,97852.75
2019-01-24T09:59:53.501Z,97855.77
2019-01-24T10:02:20.339Z,97853.73
2019-01-24T10:04:47.069Z,97858.00
2019-01-24T10:07:13.654Z,97860.51
2019-01-24T10:09:40.535Z,97857.00
2019-01-24T10:12:07.574Z,97854.56
2019-01-24T10:14:34.462Z,97853.83
2019-01-24T10:17:00.955Z,97862.35
2019-01-24T10:19:27.662Z,97864.34
2019-01-24T10:21:54.201Z,97860.97
2019-01-24T10:24:21.352Z,97860.91
2019-01-24T10:26:47.930Z,97851.58
2019-01-24T10:29:14.575Z,97856.09
2019-01-24T10:31:41.280Z,97856.30
2019-01-24T10:34:07.961Z,97852.84
2019-01-24T10:36:43.113Z,97858.39
2019-01-24T10:39:09.062Z,97850.86
2019-01-24T10:41:35.556Z,97852.55
2019-01-24T10:44:02.367Z,97853.78
2019-01-24T10:46:29.251Z,97866.41
2019-01-24T10:48:57.123Z,97869.95
2019-01-24T10:51:27.011Z,97866.05
2019-01-24T10:53:53.575Z,97864.50
2019-01-24T10:56:20.394Z,97861.98
2019-01-24T10:58:47.036Z,97875.70
2019-01-24T11:01:13.779Z,97863.00
2019-01-24T11:03:40.428Z,97862.95
2019-01-24T11:06:24.936Z,97861.40
2019-01-24T11:08:55.355Z,97860.75
2019-01-24T11:11:22.620Z,97861.89
2019-01-24T11:13:49.251Z,97860.06
2019-01-24T11:16:15.739Z,97860.92
2019-01-24T11:18:42.368Z,97857.48
2019-01-24T11:21:09.063Z,97865.03
2019-01-24T11:23:35.927Z,97866.31
2019-01-24T11:26:03.686Z,97856.31
2019-01-24T11:28:30.640Z,97860.34
2019-01-24T11:30:57.287Z,97853.17
2019-01-24T11:33:24.056Z,97848.06
2019-01-24T11:35:51.082Z,97850.50
2019-01-24T11:38:17.727Z,97846.44
2019-01-24T11:40:48.433Z,97852.05
2019-01-24T11:43:15.491Z,97844.14
2019-01-24T11:45:42.961Z,97844.94
2019-01-24T11:48:09.900Z,97842.32
2019-01-24T11:50:36.479Z,97842.17
2019-01-24T11:53:03.915Z,97845.30
2019-01-24T11:55:30.538Z,97848.60
2019-01-24T11:57:57.439Z,97849.23
2019-01-24T12:00:32.196Z,97844.03
2019-01-24T12:02:58.780Z,97849.67
2019-01-24T12:05:25.547Z,97843.75
2019-01-24T12:07:52.238Z,97849.94
2019-01-24T12:10:20.553Z,97847.89
2019-01-24T12:12:47.068Z,97846.45
2019-01-24T12:15:15.388Z,97842.06
2019-01-24T12:17:42.245Z,97848.28
2019-01-24T12:20:11.930Z,97846.50
2019-01-24T12:22:38.466Z,97849.92
2019-01-24T12:25:05.761Z,97851.18
2019-01-24T12:27:32.518Z,97843.58
2019-01-24T12:29:59.247Z,97848.84
2019-01-24T12:32:26.359Z,97843.63
2019-01-24T12:34:52.878Z,97842.76
2019-01-24T12:37:19.474Z,97843.77
2019-01-24T12:39:46.305Z,97842.16
2019-01-24T12:42:12.791Z,97844.03
2019-01-24T12:44:39.352Z,97835.47
2019-01-24T12:47:05.868Z,97844.16
2019-01-24T12:49:32.513Z,97837.04
2019-01-24T12:51:58.988Z,97844.01
2019-01-24T12:54:25.833Z,97834.30
2019-01-24T12:56:52.682Z,97836.82
2019-01-24T12:59:19.635Z,97833.67
2019-01-24T13:01:46.131Z,97836.58
2019-01-24T13:04:12.883Z,97836.87
2019-01-24T13:06:39.682Z,97839.56
2019-01-24T13:09:06.727Z,97847.61
2019-01-24T13:11:35.688Z,97836.75
2019-01-24T13:14:02.614Z,97839.20
2019-01-24T13:16:29.252Z,97840.61
2019-01-24T13:18:56.072Z,97847.27
2019-01-24T13:21:22.693Z,97850.77
2019-01-24T13:23:49.184Z,97837.43
2019-01-24T13:26:15.981Z,97839.20
2019-01-24T13:28:43.035Z,97839.60
2019-01-24T13:31:10.300Z,97840.02
2019-01-24T13:33:37.036Z,97835.64
2019-01-24T13:36:06.596Z,97841.70
2019-01-24T13:38:33.552Z,97832.73
2019-01-24T13:41:00.368Z,97846.03
2019-01-24T13:43:29.322Z,97847.70
2019-01-24T13:45:55.864Z,97850.95
2019-01-24T13:48:22.453Z,97851.33
2019-01-24T13:50:49.060Z,97854.41
2019-01-24T13:53:15.655Z,97860.65
2019-01-24T13:55:42.524Z,97862.01
2019-01-24T13:58:09.553Z,97861.61
2019-01-24T14:00:38.150Z,97860.30
2019-01-24T14:03:17.409Z,97859.10
2019-01-24T14:05:44.013Z,97867.13
2019-01-24T14:08:10.875Z,97862.38
2019-01-24T14:10:37.626Z,97860.38
2019-01-24T14:13:04.535Z,97867.91
2019-01-24T14:15:31.554Z,97870.61
2019-01-24T14:17:58.388Z,97874.86
2019-01-24T14:20:24.946Z,97883.85
2019-01-24T14:22:51.972Z,97877.64
2019-01-24T14:25:18.618Z,97882.70
2019-01-24T14:27:45.424Z,97882.25
2019-01-24T14:30:15.548Z,97884.98
2019-01-24T14:36:25.464Z,97888.59
2019-01-24T14:38:50.421Z,97894.45
2019-01-24T14:41:16.924Z,97894.93
2019-01-24T14:43:43.642Z,97898.23
2019-01-24T14:46:10.188Z,97911.77
2019-01-24T14:48:36.826Z,97910.48
2019-01-24T14:51:04.627Z,97910.04
2019-01-24T14:53:31.185Z,97911.32
2019-01-24T14:55:58.022Z,97912.66
2019-01-24T14:58:24.669Z,97906.63
2019-01-24T15:01:02.110Z,97920.31
2019-01-24T15:03:29.531Z,97920.64
2019-01-24T15:05:56.401Z,97923.23
2019-01-24T15:08:24.286Z,97920.17
2019-01-24T15:10:52.919Z,97927.48
2019-01-24T15:13:19.586Z,97929.48
2019-01-24T15:15:46.200Z,97926.44
2019-01-24T15:18:12.896Z,97925.21
2019-01-24T15:20:39.672Z,97932.02
2019-01-24T15:23:07.380Z,97938.00
2019-01-24T15:25:34.049Z,97940.50
2019-01-24T15:28:00.617Z,97942.14
2019-01-24T15:30:27.766Z,97937.78
2019-01-24T15:32:54.595Z,97942.05
2019-01-24T15:35:21.089Z,97946.77
2019-01-24T15:37:54.080Z,97950.65
2019-01-24T15:40:18.728Z,97951.04
2019-01-24T15:42:45.385Z,97954.00
2019-01-24T15:45:12.507Z,97941.96
2019-01-24T15:47:39.146Z,97947.52
2019-01-24T15:50:07.201Z,97938.89
2019-01-24T15:52:34.236Z,97932.44
2019-01-24T15:55:01.973Z,97947.84
2019-01-24T15:57:28.905Z,97943.09
2019-01-24T15:59:56.581Z,97940.88
2019-01-24T16:02:23.361Z,97945.15
2019-01-24T16:04:49.948Z,97947.75
2019-01-24T16:07:16.800Z,97952.98
2019-01-24T16:09:43.363Z,97949.03
2019-01-24T16:12:09.881Z,97948.10
2019-01-24T16:14:36.463Z,97960.09
2019-01-24T16:17:03.424Z,97949.38
2019-01-24T16:19:30.261Z,97960.97
2019-01-24T16:21:56.819Z,97960.07
2019-01-24T16:24:23.491Z,97963.47
2019-01-24T16:26:50.126Z,97968.22
2019-01-24T16:29:16.630Z,97975.18
2019-01-24T16:31:43.425Z,97971.72
2019-01-24T16:34:10.444Z,97976.05
2019-01-24T16:36:36.970Z,97972.13
2019-01-24T16:39:07.092Z,97967.41
2019-01-24T16:41:33.775Z,97979.77
2019-01-24T16:44:00.348Z,97978.94
2019-01-24T16:46:26.960Z,97985.35
2019-01-24T16:48:53.618Z,97982.27
2019-01-24T16:51:21.644Z,97986.13
2019-01-24T16:53:48.346Z,97989.52
2019-01-24T16:56:19.478Z,97985.19
2019-01-24T16:58:46.243Z,97989.52
2019-01-24T17:01:22.265Z,97994.17
2019-01-24T17:03:49.015Z,97993.73
2019-01-24T17:06:16.026Z,97989.87
2019-01-24T17:08:43.336Z,97996.23
2019-01-24T17:11:10.247Z,97992.38
2019-01-24T17:13:36.879Z,97995.01
2019-01-24T17:16:03.919Z,97991.13
2019-01-24T17:18:30.732Z,97994.11
2019-01-24T17:20:57.336Z,98004.83
2019-01-24T17:23:23.996Z,98003.99
2019-01-24T17:25:50.608Z,98006.49
2019-01-24T17:28:17.227Z,98009.86
2019-01-24T17:30:44.062Z,98012.97
2019-01-24T17:33:10.691Z,98011.85
2019-01-24T17:35:37.208Z,98006.88
2019-01-24T17:38:04.011Z,98004.41
2019-01-24T17:40:30.821Z,98016.77
2019-01-24T17:42:57.599Z,98018.82
2019-01-24T17:45:24.647Z,98026.97
2019-01-24T17:47:51.346Z,98027.80
2019-01-24T17:50:18.034Z,98030.37
2019-01-24T17:52:44.726Z,98037.45
2019-01-24T17:55:17.142Z,98035.79
2019-01-24T17:57:44.073Z,98043.08
2019-01-24T18:00:15.233Z,98041.75
2019-01-24T18:02:42.920Z,98050.80
2019-01-24T18:05:10.236Z,98048.27
2019-01-24T18:07:36.835Z,98052.09
2019-01-24T18:10:14.055Z,98059.17
2019-01-24T18:12:36.495Z,98056.50
2019-01-24T18:15:06.501Z,98065.45
2019-01-24T18:17:33.025Z,98064.62
2019-01-24T18:19:59.863Z,98065.94
2019-01-24T18:22:26.580Z,98066.77
2019-01-24T18:24:53.120Z,98067.25
2019-01-24T18:27:19.995Z,98075.82
2019-01-24T18:29:46.532Z,98067.67
2019-01-24T18:32:13.408Z,98071.55
2019-01-24T18:34:40.086Z,98072.87
2019-01-24T18:37:06.822Z,98075.89
2019-01-24T18:39:33.365Z,98077.59
2019-01-24T18:42:00.921Z,98084.08
2019-01-24T18:44:27.682Z,98084.00
2019-01-24T18:46:54.288Z,98092.19
2019-01-24T18:49:21.577Z,98089.97
2019-01-24T18:51:48.165Z,98089.97
2019-01-24T18:54:14.771Z,98093.58
2019-01-24T18:56:41.679Z,98094.23
2019-01-24T18:59:08.624Z,98097.38
2019-01-24T19:01:35.457Z,98085.20
2019-01-24T19:04:02.017Z,98089.43
2019-01-24T19:06:29.599Z,98080.98
2019-01-24T19:08:56.294Z,98090.89
2019-01-24T19:11:27.159Z,98090.34
2019-01-24T19:13:57.045Z,98095.47
2019-01-24T19:16:24.921Z,98096.30
2019-01-24T19:18:53.958Z,98089.88
2019-01-24T19:21:26.842Z,98095.92
2019-01-24T19:23:56.789Z,98091.24
2019-01-24T19:26:23.356Z,98096.03
2019-01-24T19:28:50.102Z,98095.20
2019-01-24T19:31:16.812Z,98100.78
2019-01-24T19:33:46.308Z,98103.16
2019-01-24T19:36:15.999Z,98100.59
2019-01-24T19:38:45.174Z,98105.23
2019-01-24T19:41:14.470Z,98102.98
2019-01-24T19:43:43.752Z,98102.91
2019-01-24T19:46:10.621Z,98110.08
2019-01-24T19:48:40.576Z,98109.24
2019-01-24T19:51:07.392Z,98109.73
2019-01-24T19:53:34.966Z,98104.64
2019-01-24T19:56:06.139Z,98113.31
2019-01-24T19:58:37.578Z,98114.07
2019-01-24T20:01:09.877Z,98117.02
2019-01-24T20:03:37.152Z,98121.95
2019-01-24T20:06:10.157Z,98120.59
2019-01-24T20:08:36.995Z,98130.78
2019-01-24T20:11:06.864Z,98125.09
2019-01-24T20:13:36.845Z,98135.34
2019-01-24T20:16:07.215Z,98142.58
2019-01-24T20:18:37.034Z,98132.70
2019-01-24T20:21:06.891Z,98139.86
2019-01-24T20:23:37.013Z,98136.77
2019-01-24T20:26:09.825Z,98137.55
2019-01-24T20:28:37.819Z,98137.86
2019-01-24T20:31:08.352Z,98142.08
2019-01-24T20:33:36.385Z,98133.89
2019-01-24T20:36:07.811Z,98139.89
2019-01-24T20:38:37.919Z,98143.36
2019-01-24T20:41:05.177Z,98145.88
2019-01-24T20:43:36.858Z,98145.72
2019-01-24T20:46:04.285Z,98145.23
2019-01-24T20:48:34.323Z,98150.20
2019-01-24T20:51:04.170Z,98153.55
2019-01-24T20:53:31.559Z,98157.77
2019-01-24T20:55:58.342Z,98153.39
2019-01-24T20:58:33.914Z,98154.22
2019-01-24T21:01:06.600Z,98158.02
2019-01-24T21:03:35.485Z,98169.09
2019-01-24T21:06:04.310Z,98168.72
2019-01-24T21:08:34.192Z,98170.45
2019-01-24T21:11:00.658Z,98171.23
2019-01-24T21:13:29.667Z,98164.80
2019-01-24T21:15:58.433Z,98168.06
2019-01-24T21:18:25.457Z,98175.34
2019-01-24T21:20:55.499Z,98171.56
2019-01-24T21:23:25.243Z,98174.13
2019-01-24T21:25:54.490Z,98173.64
2019-01-24T21:28:24.344Z,98177.03
2019-01-24T21:30:55.450Z,98185.13
2019-01-24T21:33:24.703Z,98185.99
2019-01-24T21:35:54.766Z,98188.10
2019-01-24T21:38:21.859Z,98190.62
2019-01-24T21:40:50.245Z,98186.82
2019-01-24T21:43:25.530Z,98189.80
2019-01-24T21:45:53.268Z,98185.45
2019-01-24T21:48:20.002Z,98192.11
2019-01-24T21:50:46.751Z,98195.49
2019-01-24T21:53:13.413Z,98189.45
2019-01-24T21:55:40.236Z,98191.61
2019-01-24T21:58:07.562Z,98187.64
2019-01-24T22:00:34.280Z,98190.61
2019-01-24T22:03:00.987Z,98190.16
2019-01-24T22:05:30.636Z,98179.00
2019-01-24T22:07:57.310Z,98187.05
2019-01-24T22:10:25.249Z,98190.03
2019-01-24T22:12:52.218Z,98190.77
2019-01-24T22:15:20.815Z,98187.42
2019-01-24T22:17:49.562Z,98184.86
2019-01-24T22:20:16.695Z,98185.56
2019-01-24T22:22:43.711Z,98187.20
2019-01-24T22:25:15.926Z,98194.77
2019-01-24T22:27:42.543Z,98196.33
2019-01-24T22:30:13.577Z,98188.52
2019-01-24T22:32:40.121Z,98186.78
2019-01-24T22:35:06.937Z,98183.30
2019-01-24T22:37:33.916Z,98182.48
2019-01-24T22:40:00.994Z,98186.03
2019-01-24T22:42:27.801Z,98177.12
2019-01-24T22:44:55.902Z,98173.37
2019-01-24T22:47:22.568Z,98175.11
2019-01-24T22:49:49.132Z,98176.38
2019-01-24T22:52:16.062Z,98180.68
2019-01-24T22:54:42.735Z,98175.92
2019-01-24T22:57:09.227Z,98176.53
2019-01-24T22:59:36.950Z,98178.42
2019-01-24T23:02:25.938Z,98174.33
2019-01-24T23:04:52.543Z,98173.86
2019-01-24T23:07:19.530Z,98175.83
2019-01-24T23:09:46.422Z,98171.41
2019-01-24T23:12:13.063Z,98172.23
2019-01-24T23:14:39.608Z,98179.08
2019-01-24T23:17:06.967Z,98181.69
2019-01-24T23:19:33.618Z,98174.88
2019-01-24T23:22:00.231Z,98177.11
2019-01-24T23:24:28.885Z,98172.91
2019-01-24T23:26:55.495Z,98175.00
2019-01-24T23:29:22.117Z,98173.73
2019-01-24T23:31:49.825Z,98180.08
2019-01-24T23:34:16.951Z,98184.66
2019-01-24T23:36:43.903Z,98183.38
2019-01-24T23:39:10.759Z,98185.11
2019-01-24T23:41:37.523Z,98188.63
2019-01-24T23:44:04.784Z,98182.69
2019-01-24T23:46:31.364Z,98181.77
2019-01-24T23:48:57.853Z,98186.48
2019-01-24T23:51:24.514Z,98180.13
2019-01-24T23:53:51.486Z,98186.98
2019-01-24T23:56:18.234Z,98186.11
2019-01-24T23:58:44.767Z,98189.45
